地図

経路データ

SID SEASON NUMBER BASIN SUBBASIN NAME ISO_TIME NATURE LAT LON WMO_WIND WMO_PRES WMO_AGENCY TRACK_TYPE DIST2LAND LANDFALL IFLAG USA_AGENCY USA_ATCF_ID USA_LAT USA_LON USA_RECORD USA_STATUS USA_WIND USA_PRES USA_SSHS USA_R34_NE USA_R34_SE USA_R34_SW USA_R34_NW USA_R50_NE USA_R50_SE USA_R50_SW USA_R50_NW USA_R64_NE USA_R64_SE USA_R64_SW USA_R64_NW USA_POCI USA_ROCI USA_RMW USA_EYE TOKYO_LAT TOKYO_LON TOKYO_GRADE TOKYO_WIND TOKYO_PRES TOKYO_R50_DIR TOKYO_R50_LONG TOKYO_R50_SHORT TOKYO_R30_DIR TOKYO_R30_LONG TOKYO_R30_SHORT TOKYO_LAND CMA_LAT CMA_LON CMA_CAT CMA_WIND CMA_PRES HKO_LAT HKO_LON HKO_CAT HKO_WIND HKO_PRES NEWDELHI_LAT NEWDELHI_LON NEWDELHI_GRADE NEWDELHI_WIND NEWDELHI_PRES NEWDELHI_CI NEWDELHI_DP NEWDELHI_POCI REUNION_LAT REUNION_LON REUNION_TYPE REUNION_WIND REUNION_PRES REUNION_TNUM REUNION_CI REUNION_RMW REUNION_R34_NE REUNION_R34_SE REUNION_R34_SW REUNION_R34_NW REUNION_R50_NE REUNION_R50_SE REUNION_R50_SW REUNION_R50_NW REUNION_R64_NE REUNION_R64_SE REUNION_R64_SW REUNION_R64_NW BOM_LAT BOM_LON BOM_TYPE BOM_WIND BOM_PRES BOM_TNUM BOM_CI BOM_RMW BOM_R34_NE BOM_R34_SE BOM_R34_SW BOM_R34_NW BOM_R50_NE BOM_R50_SE BOM_R50_SW BOM_R50_NW BOM_R64_NE BOM_R64_SE BOM_R64_SW BOM_R64_NW BOM_ROCI BOM_POCI BOM_EYE BOM_POS_METHOD BOM_PRES_METHOD NADI_LAT NADI_LON NADI_CAT NADI_WIND NADI_PRES WELLINGTON_LAT WELLINGTON_LON WELLINGTON_WIND WELLINGTON_PRES DS824_LAT DS824_LON DS824_STAGE DS824_WIND DS824_PRES TD9636_LAT TD9636_LON TD9636_STAGE TD9636_WIND TD9636_PRES TD9635_LAT TD9635_LON TD9635_WIND TD9635_PRES TD9635_ROCI NEUMANN_LAT NEUMANN_LON NEUMANN_CLASS NEUMANN_WIND NEUMANN_PRES MLC_LAT MLC_LON MLC_CLASS MLC_WIND MLC_PRES USA_GUST BOM_GUST BOM_GUST_PER REUNION_GUST REUNION_GUST_PER USA_SEAHGT USA_SEARAD_NE USA_SEARAD_SE USA_SEARAD_SW USA_SEARAD_NW STORM_SPEED STORM_DIR
1932138N17116 1932 25 WP MM NOT_NAMED 1932-05-17 10:00:00 NR 17.1000 116.200 main 392 392 __________O___ -1 17.1000 116.200 4 3 297
1932138N17116 1932 25 WP MM NOT_NAMED 1932-05-17 12:00:00 NR 17.1438 116.112 main 403 403 __________P___ -1 17.1438 116.112 4 3 297
1932138N17116 1932 25 WP MM NOT_NAMED 1932-05-17 15:00:00 NR 17.2180 115.963 main 416 416 __________P___ -1 17.2180 115.963 4 4 298
1932138N17116 1932 25 WP MM NOT_NAMED 1932-05-17 18:00:00 NR 17.3144 115.770 main 440 440 __________P___ -1 17.3144 115.770 4 5 298
1932138N17116 1932 25 WP MM NOT_NAMED 1932-05-17 21:00:00 NR 17.4460 115.508 main 473 476 __________P___ -1 17.4460 115.508 4 6 298
1932138N17116 1932 25 WP MM NOT_NAMED 1932-05-17 22:00:00 NR 17.5000 115.400 main 487 487 __________O___ -1 17.5000 115.400 4 8 298
1932138N17116 1932 25 WP MM NOT_NAMED 1932-05-18 00:00:00 NR 17.6244 115.152 main 495 438 __________P___ -1 17.6244 115.152 4 9 298
1932138N17116 1932 25 WP MM NOT_NAMED 1932-05-18 03:00:00 NR 17.8424 114.717 main 438 376 __________P___ -1 17.8424 114.717 4 10 298
1932138N17116 1932 25 WP MM NOT_NAMED 1932-05-18 06:00:00 NR 18.0813 114.239 main 376 328 __________P___ -1 18.0813 114.239 4 10 298
1932138N17116 1932 25 WP MM NOT_NAMED 1932-05-18 09:00:00 NR 18.3223 113.756 main 328 304 __________P___ -1 18.3223 113.756 4 10 298
1932138N17116 1932 25 WP MM NOT_NAMED 1932-05-18 10:00:00 NR 18.4000 113.600 main 304 266 __________O___ -1 18.4000 113.600 4 10 299
1932138N17116 1932 25 WP MM NOT_NAMED 1932-05-18 12:00:00 NR 18.5547 113.309 main 266 218 __________P___ -1 18.5547 113.309 4 9 299
1932138N17116 1932 25 WP MM NOT_NAMED 1932-05-18 15:00:00 NR 18.7808 112.885 main 218 171 __________P___ -1 18.7808 112.885 4 9 299
1932138N17116 1932 25 WP MM NOT_NAMED 1932-05-18 18:00:00 NR 18.9861 112.483 main 171 123 __________P___ -1 18.9861 112.483 4 8 297
1932138N17116 1932 25 WP MM NOT_NAMED 1932-05-18 21:00:00 NR 19.1547 112.114 main 123 114 __________P___ -1 19.1547 112.114 4 8 295
1932138N17116 1932 25 WP MM NOT_NAMED 1932-05-18 22:00:00 NR 19.2000 112.000 main 114 90 __________O___ -1 19.2000 112.000 4 7 289
1932138N17116 1932 25 WP MM NOT_NAMED 1932-05-19 00:00:00 NR 19.2594 111.785 main 90 62 __________P___ -1 19.2594 111.785 4 6 283
1932138N17116 1932 25 WP MM NOT_NAMED 1932-05-19 03:00:00 NR 19.3108 111.494 main 62 38 __________P___ -1 19.3108 111.494 4 5 279
1932138N17116 1932 25 WP MM NOT_NAMED 1932-05-19 06:00:00 NR 19.3418 111.231 main 38 15 __________P___ -1 19.3418 111.231 4 5 278
1932138N17116 1932 25 WP MM NOT_NAMED 1932-05-19 09:00:00 NR 19.3805 110.982 main 15 11 __________P___ -1 19.3805 110.982 4 5 281
1932138N17116 1932 25 WP MM NOT_NAMED 1932-05-19 10:00:00 NR 19.4000 110.900 main 11 0 __________O___ -1 19.4000 110.900 4 5 288
1932138N17116 1932 25 WP MM NOT_NAMED 1932-05-19 12:00:00 NR 19.4555 110.735 main 0 0 __________P___ -1 19.4555 110.735 4 5 292
1932138N17116 1932 25 WP MM NOT_NAMED 1932-05-19 15:00:00 NR 19.5576 110.495 main 0 0 __________P___ -1 19.5576 110.495 4 5 297
1932138N17116 1932 25 WP MM NOT_NAMED 1932-05-19 18:00:00 NR 19.6851 110.251 main 0 0 __________P___ -1 19.6851 110.251 4 6 301
1932138N17116 1932 25 WP MM NOT_NAMED 1932-05-19 21:00:00 NR 19.8411 109.992 main 0 0 __________P___ -1 19.8411 109.992 4 6 303
1932138N17116 1932 25 WP MM NOT_NAMED 1932-05-19 22:00:00 NR 19.9000 109.900 main 0 0 __________O___ -1 19.9000 109.900 4 7 304
1932138N17116 1932 25 WP MM NOT_NAMED 1932-05-20 00:00:00 NR 20.0298 109.698 main 11 11 __________P___ -1 20.0298 109.698 4 7 305
1932138N17116 1932 25 WP MM NOT_NAMED 1932-05-20 03:00:00 NR 20.2498 109.376 main 35 45 __________P___ -1 20.2498 109.376 4 8 307
1932138N17116 1932 25 WP MM NOT_NAMED 1932-05-20 06:00:00 NR 20.4862 109.042 main 80 80 __________P___ -1 20.4862 109.042 4 8 307
1932138N17116 1932 25 WP MM NOT_NAMED 1932-05-20 09:00:00 NR 20.7234 108.709 main 93 84 __________P___ -1 20.7234 108.709 4 8 307
1932138N17116 1932 25 WP MM NOT_NAMED 1932-05-20 10:00:00 NR 20.8000 108.600 main 88 70 __________O___ -1 20.8000 108.600 4 7 307
1932138N17116 1932 25 WP MM NOT_NAMED 1932-05-20 12:00:00 NR 20.9469 108.388 main 70 30 __________P___ -1 20.9469 108.388 4 7 306
1932138N17116 1932 25 WP MM NOT_NAMED 1932-05-20 15:00:00 NR 21.1540 108.082 main 30 11 __________P___ -1 21.1540 108.082 4 7 306
1932138N17116 1932 25 WP MM NOT_NAMED 1932-05-20 18:00:00 NR 21.3494 107.787 main 11 0 __________P___ -1 21.3494 107.787 4 7 305
1932138N17116 1932 25 WP MM NOT_NAMED 1932-05-20 21:00:00 NR 21.5379 107.496 main 0 0 __________P___ -1 21.5379 107.496 4 7 305
1932138N17116 1932 25 WP MM NOT_NAMED 1932-05-20 22:00:00 NR 21.6000 107.400 main 0 __________O___ -1 21.6000 107.400 7 7 306

デジタル台風データ・検索

IBTrACS Databaseについて

本データベースは、米国NOAAが公開する1842年以降の世界の熱帯低気圧のベストトラックデータアーカイブInternational Best Track Archive for Climate Stewardship (IBTrACS)を、ウェブで閲覧しやすい形式に変換したものです。

最終更新日:2021-11-26